sensor_id;sensor_type;location;lat;lon;timestamp;pressure;altitude;pressure_sealevel;temperature;humidity
37892;BME280;45797;47.466;9.486;2022-09-21T00:03:13;96443.59;;;13.92;55.82
37892;BME280;45797;47.466;9.486;2022-09-21T00:08:13;96445.16;;;13.84;55.96
37892;BME280;45797;47.466;9.486;2022-09-21T00:13:38;96451.31;;;13.71;56.06
37892;BME280;45797;47.466;9.486;2022-09-21T00:18:39;96451.44;;;13.70;56.41
37892;BME280;45797;47.466;9.486;2022-09-21T00:23:43;96460.72;;;13.63;56.50
37892;BME280;45797;47.466;9.486;2022-09-21T00:28:45;96462.03;;;13.57;56.60
37892;BME280;45797;47.466;9.486;2022-09-21T00:33:53;96448.59;;;13.49;56.66
37892;BME280;45797;47.466;9.486;2022-09-21T00:38:56;96438.28;;;13.46;57.10
37892;BME280;45797;47.466;9.486;2022-09-21T00:49:17;96424.09;;;13.36;57.17
37892;BME280;45797;47.466;9.486;2022-09-21T00:54:25;96427.19;;;13.30;57.31
37892;BME280;45797;47.466;9.486;2022-09-21T00:59:34;96415.44;;;13.23;57.57
37892;BME280;45797;47.466;9.486;2022-09-21T01:04:37;96417.34;;;13.21;57.81
37892;BME280;45797;47.466;9.486;2022-09-21T01:09:40;96426.34;;;13.16;58.09
37892;BME280;45797;47.466;9.486;2022-09-21T01:30:42;96429.19;;;12.77;58.72
37892;BME280;45797;47.466;9.486;2022-09-21T01:35:46;96429.66;;;12.71;58.67
37892;BME280;45797;47.466;9.486;2022-09-21T01:40:54;96424.50;;;12.56;59.08
37892;BME280;45797;47.466;9.486;2022-09-21T01:45:58;96418.44;;;12.43;59.26
37892;BME280;45797;47.466;9.486;2022-09-21T01:51:03;96423.59;;;12.32;59.25
37892;BME280;45797;47.466;9.486;2022-09-21T01:56:40;96416.03;;;12.15;59.63
37892;BME280;45797;47.466;9.486;2022-09-21T02:01:57;96425.47;;;12.05;59.81
37892;BME280;45797;47.466;9.486;2022-09-21T02:07:00;96422.63;;;11.95;60.14
37892;BME280;45797;47.466;9.486;2022-09-21T02:12:00;96413.78;;;11.83;60.45
37892;BME280;45797;47.466;9.486;2022-09-21T02:33:18;96408.16;;;11.35;61.07
37892;BME280;45797;47.466;9.486;2022-09-21T02:38:36;96406.91;;;11.28;61.54
37892;BME280;45797;47.466;9.486;2022-09-21T02:44:08;96410.59;;;11.11;61.76
37892;BME280;45797;47.466;9.486;2022-09-21T02:49:45;96403.34;;;11.02;62.07
37892;BME280;45797;47.466;9.486;2022-09-21T02:54:58;96413.06;;;11.00;61.74
37892;BME280;45797;47.466;9.486;2022-09-21T02:59:59;96408.00;;;10.97;61.67
37892;BME280;45797;47.466;9.486;2022-09-21T03:05:00;96400.56;;;10.91;62.04
37892;BME280;45797;47.466;9.486;2022-09-21T03:10:01;96404.13;;;10.90;62.38
37892;BME280;45797;47.466;9.486;2022-09-21T03:15:03;96402.50;;;10.87;62.67
37892;BME280;45797;47.466;9.486;2022-09-21T03:20:03;96404.03;;;10.77;62.83
37892;BME280;45797;47.466;9.486;2022-09-21T03:25:05;96412.94;;;10.75;62.68
37892;BME280;45797;47.466;9.486;2022-09-21T03:30:14;96407.13;;;10.70;62.82
37892;BME280;45797;47.466;9.486;2022-09-21T03:35:20;96414.25;;;10.68;62.90
37892;BME280;45797;47.466;9.486;2022-09-21T03:40:21;96410.25;;;10.62;62.94
37892;BME280;45797;47.466;9.486;2022-09-21T03:45:22;96418.28;;;10.59;63.30
37892;BME280;45797;47.466;9.486;2022-09-21T03:50:33;96409.88;;;10.54;63.03
37892;BME280;45797;47.466;9.486;2022-09-21T03:55:34;96420.53;;;10.51;63.33
37892;BME280;45797;47.466;9.486;2022-09-21T04:00:34;96425.03;;;10.49;63.41
37892;BME280;45797;47.466;9.486;2022-09-21T04:05:41;96419.03;;;10.47;63.47
37892;BME280;45797;47.466;9.486;2022-09-21T04:10:50;96418.31;;;10.45;63.65
37892;BME280;45797;47.466;9.486;2022-09-21T04:15:49;96423.72;;;10.42;63.68
37892;BME280;45797;47.466;9.486;2022-09-21T04:20:49;96418.66;;;10.39;63.50
37892;BME280;45797;47.466;9.486;2022-09-21T04:25:53;96423.91;;;10.39;63.75
37892;BME280;45797;47.466;9.486;2022-09-21T04:31:03;96426.88;;;10.33;63.98
37892;BME280;45797;47.466;9.486;2022-09-21T04:36:03;96427.09;;;10.29;64.07
37892;BME280;45797;47.466;9.486;2022-09-21T04:41:15;96426.34;;;10.27;63.81
37892;BME280;45797;47.466;9.486;2022-09-21T04:46:18;96427.38;;;10.25;64.33
37892;BME280;45797;47.466;9.486;2022-09-21T04:51:23;96430.09;;;10.23;64.55
37892;BME280;45797;47.466;9.486;2022-09-21T04:56:25;96431.91;;;10.21;64.56
37892;BME280;45797;47.466;9.486;2022-09-21T05:01:31;96435.75;;;10.16;64.74
37892;BME280;45797;47.466;9.486;2022-09-21T05:06:37;96444.44;;;10.16;63.86
37892;BME280;45797;47.466;9.486;2022-09-21T05:11:38;96442.09;;;10.12;64.51
37892;BME280;45797;47.466;9.486;2022-09-21T05:16:37;96439.47;;;10.12;64.76
37892;BME280;45797;47.466;9.486;2022-09-21T05:21:38;96456.84;;;10.13;64.60
37892;BME280;45797;47.466;9.486;2022-09-21T05:26:38;96456.00;;;10.12;64.97
37892;BME280;45797;47.466;9.486;2022-09-21T05:31:47;96452.28;;;10.16;64.71
37892;BME280;45797;47.466;9.486;2022-09-21T05:42:00;96453.47;;;10.26;64.54
37892;BME280;45797;47.466;9.486;2022-09-21T05:47:23;96449.53;;;10.34;64.12
37892;BME280;45797;47.466;9.486;2022-09-21T05:52:39;96459.25;;;10.46;64.49
37892;BME280;45797;47.466;9.486;2022-09-21T06:08:27;96466.53;;;10.83;63.69
37892;BME280;45797;47.466;9.486;2022-09-21T06:13:26;96470.19;;;10.95;63.41
37892;BME280;45797;47.466;9.486;2022-09-21T06:18:40;96464.16;;;11.07;63.00
37892;BME280;45797;47.466;9.486;2022-09-21T06:23:41;96466.56;;;11.25;63.17
37892;BME280;45797;47.466;9.486;2022-09-21T06:28:52;96461.38;;;11.37;62.64
37892;BME280;45797;47.466;9.486;2022-09-21T06:33:51;96471.91;;;11.50;62.80
37892;BME280;45797;47.466;9.486;2022-09-21T06:38:51;96466.91;;;11.60;62.53
37892;BME280;45797;47.466;9.486;2022-09-21T06:43:56;96464.22;;;11.74;62.32
37892;BME280;45797;47.466;9.486;2022-09-21T06:48:57;96458.00;;;11.89;62.57
37892;BME280;45797;47.466;9.486;2022-09-21T06:53:57;96462.63;;;11.98;62.02
37892;BME280;45797;47.466;9.486;2022-09-21T06:58:57;96459.06;;;11.99;62.56
37892;BME280;45797;47.466;9.486;2022-09-21T07:03:58;96457.16;;;12.01;62.44
37892;BME280;45797;47.466;9.486;2022-09-21T07:09:08;96469.91;;;12.08;62.41
37892;BME280;45797;47.466;9.486;2022-09-21T07:14:08;96460.34;;;12.19;62.00
37892;BME280;45797;47.466;9.486;2022-09-21T07:19:09;96462.06;;;12.33;61.95
37892;BME280;45797;47.466;9.486;2022-09-21T07:24:20;96463.84;;;12.45;61.63
37892;BME280;45797;47.466;9.486;2022-09-21T07:29:20;96469.59;;;12.50;61.54
37892;BME280;45797;47.466;9.486;2022-09-21T07:34:21;96467.72;;;12.52;61.81
37892;BME280;45797;47.466;9.486;2022-09-21T07:39:23;96472.88;;;12.54;61.84
37892;BME280;45797;47.466;9.486;2022-09-21T07:44:25;96467.47;;;12.68;61.78
37892;BME280;45797;47.466;9.486;2022-09-21T07:49:29;96478.50;;;12.86;61.11
37892;BME280;45797;47.466;9.486;2022-09-21T07:54:29;96481.13;;;12.99;61.13
37892;BME280;45797;47.466;9.486;2022-09-21T07:59:40;96469.63;;;13.12;60.57
37892;BME280;45797;47.466;9.486;2022-09-21T08:04:40;96472.47;;;13.22;60.70
37892;BME280;45797;47.466;9.486;2022-09-21T08:09:45;96472.41;;;13.35;60.53
37892;BME280;45797;47.466;9.486;2022-09-21T08:14:56;96473.44;;;13.45;60.64
37892;BME280;45797;47.466;9.486;2022-09-21T08:20:02;96471.31;;;13.50;60.18
37892;BME280;45797;47.466;9.486;2022-09-21T08:25:02;96469.41;;;13.52;60.35
37892;BME280;45797;47.466;9.486;2022-09-21T08:30:13;96469.59;;;13.62;60.17
37892;BME280;45797;47.466;9.486;2022-09-21T08:35:12;96469.03;;;13.69;60.03
37892;BME280;45797;47.466;9.486;2022-09-21T08:40:21;96472.19;;;13.75;59.88
37892;BME280;45797;47.466;9.486;2022-09-21T08:45:38;96473.84;;;13.76;60.01
37892;BME280;45797;47.466;9.486;2022-09-21T08:50:48;96475.53;;;13.77;59.96
37892;BME280;45797;47.466;9.486;2022-09-21T08:55:56;96471.41;;;13.72;60.16
37892;BME280;45797;47.466;9.486;2022-09-21T09:22:07;96463.72;;;14.28;59.36
37892;BME280;45797;47.466;9.486;2022-09-21T09:27:26;96461.34;;;14.37;58.81
37892;BME280;45797;47.466;9.486;2022-09-21T09:32:41;96452.06;;;14.55;58.77
37892;BME280;45797;47.466;9.486;2022-09-21T09:37:46;96451.22;;;14.66;59.01
37892;BME280;45797;47.466;9.486;2022-09-21T09:48:50;96429.25;;;15.10;58.00
37892;BME280;45797;47.466;9.486;2022-09-21T09:53:57;96430.66;;;15.25;57.88
37892;BME280;45797;47.466;9.486;2022-09-21T09:59:02;96414.06;;;15.46;57.38
37892;BME280;45797;47.466;9.486;2022-09-21T10:04:09;96405.13;;;15.58;57.46
37892;BME280;45797;47.466;9.486;2022-09-21T10:09:32;96395.84;;;15.75;56.65
37892;BME280;45797;47.466;9.486;2022-09-21T10:14:33;96383.03;;;15.91;56.58
37892;BME280;45797;47.466;9.486;2022-09-21T10:19:34;96376.50;;;16.16;56.28
37892;BME280;45797;47.466;9.486;2022-09-21T10:24:37;96373.19;;;16.44;55.28
37892;BME280;45797;47.466;9.486;2022-09-21T10:29:47;96371.72;;;16.61;54.93
37892;BME280;45797;47.466;9.486;2022-09-21T10:35:13;96369.31;;;16.79;54.58
37892;BME280;45797;47.466;9.486;2022-09-21T10:40:25;96356.03;;;17.09;53.90
37892;BME280;45797;47.466;9.486;2022-09-21T10:45:29;96357.03;;;17.28;53.23
37892;BME280;45797;47.466;9.486;2022-09-21T10:50:50;96340.72;;;17.52;53.07
37892;BME280;45797;47.466;9.486;2022-09-21T10:56:04;96341.31;;;17.75;52.19
37892;BME280;45797;47.466;9.486;2022-09-21T11:06:57;96344.72;;;18.14;51.21
37892;BME280;45797;47.466;9.486;2022-09-21T11:17:38;96337.44;;;18.72;50.00
37892;BME280;45797;47.466;9.486;2022-09-21T11:22:58;96327.28;;;18.86;49.72
37892;BME280;45797;47.466;9.486;2022-09-21T11:44:53;96310.44;;;19.58;48.42
37892;BME280;45797;47.466;9.486;2022-09-21T12:06:17;96288.44;;;20.43;46.37
37892;BME280;45797;47.466;9.486;2022-09-21T12:28:34;96268.53;;;20.47;45.63
37892;BME280;45797;47.466;9.486;2022-09-21T12:33:42;96273.09;;;20.71;45.68
37892;BME280;45797;47.466;9.486;2022-09-21T12:39:04;96262.81;;;20.85;45.34
37892;BME280;45797;47.466;9.486;2022-09-21T12:49:42;96252.53;;;21.22;45.12
37892;BME280;45797;47.466;9.486;2022-09-21T13:00:04;96243.06;;;21.85;43.67
37892;BME280;45797;47.466;9.486;2022-09-21T13:05:12;96241.56;;;22.07;43.35
37892;BME280;45797;47.466;9.486;2022-09-21T13:10:35;96239.19;;;22.20;43.40
37892;BME280;45797;47.466;9.486;2022-09-21T13:15:43;96243.59;;;22.44;42.75
37892;BME280;45797;47.466;9.486;2022-09-21T13:20:55;96230.06;;;22.53;43.19
37892;BME280;45797;47.466;9.486;2022-09-21T13:26:10;96219.66;;;22.67;42.80
37892;BME280;45797;47.466;9.486;2022-09-21T13:36:35;96222.78;;;22.70;43.10
37892;BME280;45797;47.466;9.486;2022-09-21T13:41:35;96214.97;;;22.69;42.84
37892;BME280;45797;47.466;9.486;2022-09-21T14:07:28;96203.72;;;22.73;42.31
37892;BME280;45797;47.466;9.486;2022-09-21T14:12:33;96208.78;;;22.68;42.40
37892;BME280;45797;47.466;9.486;2022-09-21T14:17:41;96201.19;;;22.80;41.97
37892;BME280;45797;47.466;9.486;2022-09-21T14:22:42;96205.44;;;22.74;42.22
37892;BME280;45797;47.466;9.486;2022-09-21T14:27:43;96204.63;;;22.66;42.20
37892;BME280;45797;47.466;9.486;2022-09-21T14:38:36;96204.47;;;22.67;42.28
37892;BME280;45797;47.466;9.486;2022-09-21T14:43:40;96215.63;;;22.71;42.12
37892;BME280;45797;47.466;9.486;2022-09-21T14:49:06;96215.44;;;22.72;41.65
37892;BME280;45797;47.466;9.486;2022-09-21T15:00:02;96221.19;;;22.92;41.26
37892;BME280;45797;47.466;9.486;2022-09-21T15:21:28;96205.06;;;22.77;41.87
37892;BME280;45797;47.466;9.486;2022-09-21T15:26:31;96202.03;;;22.80;41.44
37892;BME280;45797;47.466;9.486;2022-09-21T15:31:35;96206.16;;;22.91;41.53
37892;BME280;45797;47.466;9.486;2022-09-21T15:36:38;96197.53;;;23.12;41.43
37892;BME280;45797;47.466;9.486;2022-09-21T15:41:44;96195.50;;;23.14;41.11
37892;BME280;45797;47.466;9.486;2022-09-21T15:46:50;96194.44;;;23.23;40.99
37892;BME280;45797;47.466;9.486;2022-09-21T15:52:04;96196.28;;;23.23;40.97
37892;BME280;45797;47.466;9.486;2022-09-21T16:02:38;96211.81;;;23.19;41.22
37892;BME280;45797;47.466;9.486;2022-09-21T16:07:39;96209.81;;;23.21;41.28
37892;BME280;45797;47.466;9.486;2022-09-21T16:12:49;96209.88;;;23.13;40.96
37892;BME280;45797;47.466;9.486;2022-09-21T16:23:20;96218.41;;;22.86;41.52
37892;BME280;45797;47.466;9.486;2022-09-21T16:28:27;96217.22;;;22.80;41.56
37892;BME280;45797;47.466;9.486;2022-09-21T16:38:47;96240.00;;;22.68;41.56
37892;BME280;45797;47.466;9.486;2022-09-21T16:43:48;96237.13;;;23.08;40.57
37892;BME280;45797;47.466;9.486;2022-09-21T16:48:50;96243.03;;;23.27;39.91
37892;BME280;45797;47.466;9.486;2022-09-21T16:53:58;96245.91;;;22.55;41.26
37892;BME280;45797;47.466;9.486;2022-09-21T16:59:18;96251.66;;;22.36;40.98
37892;BME280;45797;47.466;9.486;2022-09-21T17:04:26;96245.81;;;22.32;40.80
37892;BME280;45797;47.466;9.486;2022-09-21T17:09:36;96247.22;;;22.20;41.07
37892;BME280;45797;47.466;9.486;2022-09-21T17:14:49;96252.84;;;21.03;43.00
37892;BME280;45797;47.466;9.486;2022-09-21T17:19:52;96259.88;;;20.19;44.31
37892;BME280;45797;47.466;9.486;2022-09-21T17:24:52;96263.00;;;19.45;45.32
37892;BME280;45797;47.466;9.486;2022-09-21T17:30:00;96268.28;;;18.92;45.74
37892;BME280;45797;47.466;9.486;2022-09-21T17:40:31;96274.28;;;18.11;46.91
37892;BME280;45797;47.466;9.486;2022-09-21T17:51:02;96279.94;;;17.50;47.67
37892;BME280;45797;47.466;9.486;2022-09-21T17:56:34;96295.44;;;17.26;47.78
37892;BME280;45797;47.466;9.486;2022-09-21T18:01:37;96300.00;;;17.04;48.13
37892;BME280;45797;47.466;9.486;2022-09-21T18:06:39;96306.38;;;16.82;48.12
37892;BME280;45797;47.466;9.486;2022-09-21T18:17:38;96306.75;;;16.38;49.09
37892;BME280;45797;47.466;9.486;2022-09-21T18:23:17;96311.41;;;16.15;49.30
37892;BME280;45797;47.466;9.486;2022-09-21T18:39:31;96332.16;;;15.57;50.11
37892;BME280;45797;47.466;9.486;2022-09-21T18:44:49;96343.41;;;15.38;50.20
37892;BME280;45797;47.466;9.486;2022-09-21T18:50:05;96340.22;;;15.23;50.98
37892;BME280;45797;47.466;9.486;2022-09-21T18:55:28;96337.53;;;15.02;51.40
37892;BME280;45797;47.466;9.486;2022-09-21T19:00:41;96344.03;;;14.87;51.49
37892;BME280;45797;47.466;9.486;2022-09-21T19:22:14;96350.63;;;14.14;52.81
37892;BME280;45797;47.466;9.486;2022-09-21T19:27:37;96344.41;;;14.04;53.00
37892;BME280;45797;47.466;9.486;2022-09-21T19:37:46;96353.22;;;13.81;53.67
37892;BME280;45797;47.466;9.486;2022-09-21T19:48:52;96345.00;;;13.50;54.09
37892;BME280;45797;47.466;9.486;2022-09-21T19:53:56;96342.94;;;13.42;54.54
37892;BME280;45797;47.466;9.486;2022-09-21T19:59:20;96342.66;;;13.34;54.85
37892;BME280;45797;47.466;9.486;2022-09-21T20:04:56;96346.09;;;13.24;54.70
37892;BME280;45797;47.466;9.486;2022-09-21T20:15:19;96342.13;;;13.05;55.26
37892;BME280;45797;47.466;9.486;2022-09-21T20:20:24;96345.94;;;13.01;55.38
37892;BME280;45797;47.466;9.486;2022-09-21T20:31:03;96339.41;;;12.83;55.72
37892;BME280;45797;47.466;9.486;2022-09-21T20:36:12;96344.78;;;12.81;55.68
37892;BME280;45797;47.466;9.486;2022-09-21T20:41:15;96344.78;;;12.81;56.08
37892;BME280;45797;47.466;9.486;2022-09-21T20:46:26;96341.97;;;12.72;56.04
37892;BME280;45797;47.466;9.486;2022-09-21T20:51:31;96344.06;;;12.67;56.40
37892;BME280;45797;47.466;9.486;2022-09-21T20:56:32;96344.72;;;12.57;56.31
37892;BME280;45797;47.466;9.486;2022-09-21T21:01:32;96344.94;;;12.54;56.47
37892;BME280;45797;47.466;9.486;2022-09-21T21:06:32;96351.28;;;12.52;56.51
37892;BME280;45797;47.466;9.486;2022-09-21T21:11:35;96352.31;;;12.49;56.76
37892;BME280;45797;47.466;9.486;2022-09-21T21:16:35;96346.66;;;12.43;57.27
37892;BME280;45797;47.466;9.486;2022-09-21T21:21:37;96349.41;;;12.41;57.36
37892;BME280;45797;47.466;9.486;2022-09-21T21:26:39;96354.25;;;12.35;57.09
37892;BME280;45797;47.466;9.486;2022-09-21T21:31:42;96354.44;;;12.32;57.44
37892;BME280;45797;47.466;9.486;2022-09-21T21:36:59;96354.44;;;12.19;57.20
37892;BME280;45797;47.466;9.486;2022-09-21T21:41:59;96361.59;;;12.17;57.74
37892;BME280;45797;47.466;9.486;2022-09-21T21:47:03;96354.78;;;12.14;57.71
37892;BME280;45797;47.466;9.486;2022-09-21T21:52:21;96359.63;;;12.08;57.80
37892;BME280;45797;47.466;9.486;2022-09-21T21:57:21;96359.06;;;12.02;58.19
37892;BME280;45797;47.466;9.486;2022-09-21T22:02:22;96361.09;;;11.99;58.25
37892;BME280;45797;47.466;9.486;2022-09-21T22:07:24;96356.25;;;11.93;58.38
37892;BME280;45797;47.466;9.486;2022-09-21T22:12:24;96352.44;;;11.84;58.80
37892;BME280;45797;47.466;9.486;2022-09-21T22:17:24;96353.63;;;11.80;59.26
37892;BME280;45797;47.466;9.486;2022-09-21T22:22:26;96359.06;;;11.77;58.79
37892;BME280;45797;47.466;9.486;2022-09-21T22:27:31;96358.50;;;11.72;58.77
37892;BME280;45797;47.466;9.486;2022-09-21T22:32:56;96347.78;;;11.62;58.82
37892;BME280;45797;47.466;9.486;2022-09-21T22:38:03;96345.38;;;11.59;58.90
37892;BME280;45797;47.466;9.486;2022-09-21T22:43:09;96345.78;;;11.53;59.64
37892;BME280;45797;47.466;9.486;2022-09-21T22:48:19;96354.16;;;11.45;59.28
37892;BME280;45797;47.466;9.486;2022-09-21T22:53:21;96356.16;;;11.42;59.66
37892;BME280;45797;47.466;9.486;2022-09-21T22:58:27;96352.97;;;11.37;59.76
37892;BME280;45797;47.466;9.486;2022-09-21T23:03:28;96349.72;;;11.33;59.51
37892;BME280;45797;47.466;9.486;2022-09-21T23:08:37;96347.31;;;11.30;59.74
37892;BME280;45797;47.466;9.486;2022-09-21T23:13:39;96351.63;;;11.31;59.79
37892;BME280;45797;47.466;9.486;2022-09-21T23:18:41;96358.75;;;11.29;60.24
37892;BME280;45797;47.466;9.486;2022-09-21T23:23:42;96346.59;;;11.28;59.93
37892;BME280;45797;47.466;9.486;2022-09-21T23:28:59;96342.78;;;11.20;59.82
37892;BME280;45797;47.466;9.486;2022-09-21T23:34:10;96341.84;;;11.21;59.92
37892;BME280;45797;47.466;9.486;2022-09-21T23:39:12;96341.94;;;11.19;60.08
37892;BME280;45797;47.466;9.486;2022-09-21T23:44:21;96336.88;;;11.16;59.94
37892;BME280;45797;47.466;9.486;2022-09-21T23:49:21;96335.63;;;11.09;60.58
37892;BME280;45797;47.466;9.486;2022-09-21T23:54:30;96328.03;;;11.04;60.70
37892;BME280;45797;47.466;9.486;2022-09-21T23:59:34;96341.16;;;11.04;60.14
